createdAt,value
2022-10-23T00:01:57.539Z,13.43
2022-10-23T00:05:00.415Z,13.80
2022-10-23T00:08:02.867Z,13.48
2022-10-23T00:11:10.635Z,13.23
2022-10-23T00:14:13.358Z,13.88
2022-10-23T00:17:16.088Z,14.67
2022-10-23T00:20:18.740Z,13.80
2022-10-23T00:23:21.487Z,14.18
2022-10-23T00:26:23.931Z,14.63
2022-10-23T00:29:28.250Z,16.30
2022-10-23T00:35:42.260Z,15.00
2022-10-23T00:38:45.574Z,15.50
2022-10-23T00:41:48.346Z,15.40
2022-10-23T00:44:50.722Z,14.57
2022-10-23T00:47:54.559Z,14.53
2022-10-23T00:50:57.095Z,14.57
2022-10-23T00:54:22.930Z,15.90
2022-10-23T00:57:23.220Z,15.30
2022-10-23T01:00:30.053Z,15.48
2022-10-23T01:03:34.264Z,13.40
2022-10-23T01:06:42.574Z,14.60
2022-10-23T01:10:06.467Z,15.10
2022-10-23T01:13:15.420Z,15.70
2022-10-23T01:16:28.916Z,14.98
2022-10-23T01:19:47.658Z,15.67
2022-10-23T01:23:02.296Z,15.15
2022-10-23T01:26:25.180Z,14.82
2022-10-23T01:29:39.847Z,15.10
2022-10-23T01:32:56.524Z,14.68
2022-10-23T01:36:05.125Z,15.37
2022-10-23T01:39:11.893Z,14.18
2022-10-23T01:42:25.231Z,13.93
2022-10-23T01:45:35.553Z,14.20
2022-10-23T01:48:38.353Z,13.88
2022-10-23T01:51:44.341Z,13.40
2022-10-23T01:54:50.491Z,14.15
2022-10-23T01:57:53.857Z,12.85
2022-10-23T02:00:59.992Z,13.18
2022-10-23T02:04:05.193Z,13.85
2022-10-23T02:07:07.786Z,13.73
2022-10-23T02:10:11.187Z,13.70
2022-10-23T02:13:22.934Z,15.52
2022-10-23T02:16:38.152Z,15.00
2022-10-23T02:19:56.238Z,14.45
2022-10-23T02:23:03.451Z,13.97
2022-10-23T02:26:17.569Z,14.20
2022-10-23T02:29:34.497Z,13.38
2022-10-23T02:32:42.865Z,13.48
2022-10-23T02:38:54.368Z,14.63
2022-10-23T02:42:03.073Z,14.73
2022-10-23T02:45:11.145Z,15.10
2022-10-23T02:48:23.576Z,14.15
2022-10-23T02:51:41.627Z,14.45
2022-10-23T02:54:51.219Z,14.07
2022-10-23T02:58:12.999Z,13.60
2022-10-23T03:01:19.106Z,11.90
2022-10-23T03:04:24.189Z,13.13
2022-10-23T03:07:27.240Z,12.73
2022-10-23T03:10:34.627Z,12.90
2022-10-23T03:13:37.452Z,11.93
2022-10-23T03:16:39.907Z,12.07
2022-10-23T03:19:45.311Z,12.23
2022-10-23T03:22:49.580Z,11.48
2022-10-23T03:25:54.997Z,12.03
2022-10-23T03:29:02.166Z,13.40
2022-10-23T03:32:05.099Z,16.12
2022-10-23T03:35:10.926Z,12.37
2022-10-23T03:38:15.096Z,10.85
2022-10-23T03:41:17.721Z,11.23
2022-10-23T03:44:20.469Z,10.93
2022-10-23T03:47:22.933Z,10.13
2022-10-23T03:50:26.297Z,10.10
2022-10-23T03:53:29.590Z,10.95
2022-10-23T03:56:32.307Z,10.20
2022-10-23T03:59:35.553Z,8.93
2022-10-23T04:02:40.565Z,9.98
2022-10-23T04:05:44.350Z,9.73
2022-10-23T04:08:49.430Z,11.20
2022-10-23T04:11:55.885Z,9.23
2022-10-23T04:15:02.623Z,9.73
2022-10-23T04:18:05.689Z,10.70
2022-10-23T04:21:08.994Z,10.85
2022-10-23T04:24:11.570Z,10.43
2022-10-23T04:27:14.992Z,11.03
2022-10-23T04:30:18.149Z,11.85
2022-10-23T04:33:21.319Z,11.65
2022-10-23T04:36:24.395Z,10.85
2022-10-23T04:39:27.232Z,10.63
2022-10-23T04:42:29.782Z,14.07
2022-10-23T04:45:35.467Z,14.23
2022-10-23T04:48:37.916Z,15.93
2022-10-23T04:51:44.874Z,12.25
2022-10-23T04:54:47.747Z,13.95
2022-10-23T04:57:51.340Z,12.33
2022-10-23T05:00:55.807Z,13.82
2022-10-23T05:03:58.898Z,15.93
2022-10-23T05:07:01.761Z,14.38
2022-10-23T05:10:06.324Z,13.90
2022-10-23T05:13:10.686Z,14.43
2022-10-23T05:16:33.600Z,10.93
2022-10-23T05:19:41.964Z,11.73
2022-10-23T05:22:46.241Z,12.43
2022-10-23T05:25:49.467Z,11.70
2022-10-23T05:28:52.591Z,12.17
2022-10-23T05:31:59.041Z,12.88
2022-10-23T05:35:08.848Z,13.88
2022-10-23T05:38:11.934Z,12.52
2022-10-23T05:41:15.317Z,11.48
2022-10-23T05:44:18.207Z,11.20
2022-10-23T05:47:22.300Z,9.95
2022-10-23T05:50:27.760Z,9.50
2022-10-23T05:53:31.558Z,8.38
2022-10-23T05:56:36.924Z,9.60
2022-10-23T05:59:40.451Z,7.33
2022-10-23T06:02:44.582Z,8.63
2022-10-23T06:05:52.029Z,8.63
2022-10-23T06:08:54.897Z,8.98
2022-10-23T06:11:57.731Z,11.12
2022-10-23T06:15:00.283Z,9.97
2022-10-23T06:18:04.683Z,9.50
2022-10-23T06:21:08.255Z,9.02
2022-10-23T06:24:11.191Z,8.40
2022-10-23T06:27:13.866Z,7.68
2022-10-23T06:30:16.904Z,8.03
2022-10-23T06:33:20.855Z,8.23
2022-10-23T06:36:24.187Z,7.90
2022-10-23T06:39:29.886Z,9.02
2022-10-23T06:42:35.496Z,7.72
2022-10-23T06:45:40.606Z,9.43
2022-10-23T06:48:49.238Z,10.68
2022-10-23T06:51:51.946Z,10.05
2022-10-23T06:54:56.640Z,10.43
2022-10-23T06:58:00.282Z,9.55
2022-10-23T07:01:06.423Z,9.00
2022-10-23T07:04:09.029Z,10.07
2022-10-23T07:07:11.977Z,10.70
2022-10-23T07:10:15.558Z,9.52
2022-10-23T07:13:18.677Z,10.68
2022-10-23T07:16:22.729Z,11.23
2022-10-23T07:19:25.744Z,11.07
2022-10-23T07:22:28.692Z,10.50
2022-10-23T07:25:35.937Z,10.43
2022-10-23T07:28:38.916Z,9.57
2022-10-23T07:31:41.739Z,9.43
2022-10-23T07:34:47.074Z,10.75
2022-10-23T07:37:50.163Z,9.73
2022-10-23T07:40:53.772Z,9.75
2022-10-23T07:43:56.892Z,9.25
2022-10-23T07:46:59.524Z,7.67
2022-10-23T07:50:02.856Z,8.43
2022-10-23T07:53:05.355Z,8.27
2022-10-23T07:56:15.409Z,8.45
2022-10-23T07:59:20.416Z,8.50
2022-10-23T08:02:24.198Z,9.60
2022-10-23T08:05:27.824Z,7.65
2022-10-23T08:08:31.394Z,9.45
2022-10-23T08:11:35.877Z,7.90
2022-10-23T08:14:39.056Z,8.13
2022-10-23T08:17:42.712Z,8.47
2022-10-23T08:20:47.739Z,6.93
2022-10-23T08:23:53.592Z,8.15
2022-10-23T08:26:56.095Z,8.52
2022-10-23T08:30:05.162Z,6.97
2022-10-23T08:33:07.777Z,8.10
2022-10-23T08:36:23.343Z,7.72
2022-10-23T08:39:25.838Z,7.85
2022-10-23T08:42:30.125Z,9.57
2022-10-23T08:45:44.185Z,8.45
2022-10-23T08:48:50.915Z,8.33
2022-10-23T08:52:10.379Z,8.15
2022-10-23T08:55:24.279Z,7.72
2022-10-23T08:58:35.553Z,8.55
2022-10-23T09:01:42.456Z,6.87
2022-10-23T09:04:47.332Z,6.70
2022-10-23T09:08:20.291Z,7.53
2022-10-23T09:11:28.845Z,6.40
2022-10-23T09:14:59.219Z,7.80
2022-10-23T09:18:10.896Z,9.15
2022-10-23T09:21:13.708Z,9.27
2022-10-23T09:24:18.544Z,7.82
2022-10-23T09:27:21.398Z,9.88
2022-10-23T09:30:36.053Z,9.57
2022-10-23T09:33:39.546Z,8.50
2022-10-23T09:36:50.723Z,8.03
2022-10-23T09:40:15.697Z,7.40
2022-10-23T09:43:21.820Z,7.68
2022-10-23T09:46:25.920Z,7.28
2022-10-23T09:49:31.284Z,8.05
2022-10-23T09:52:36.212Z,8.33
2022-10-23T09:55:39.418Z,6.25
2022-10-23T09:59:01.992Z,7.45
2022-10-23T10:02:16.535Z,7.53
2022-10-23T10:05:22.799Z,8.02
2022-10-23T10:08:44.603Z,6.80
2022-10-23T10:11:54.384Z,6.45
2022-10-23T10:15:16.981Z,7.70
2022-10-23T10:18:21.971Z,8.32
2022-10-23T10:21:50.694Z,6.85
2022-10-23T10:25:14.969Z,8.63
2022-10-23T10:28:36.365Z,6.97
2022-10-23T10:31:50.680Z,7.80
2022-10-23T10:35:10.280Z,5.97
2022-10-23T10:38:34.954Z,7.95
2022-10-23T10:41:44.547Z,4.77
2022-10-23T10:44:56.776Z,7.53
2022-10-23T10:48:11.489Z,9.07
2022-10-23T10:51:41.341Z,7.22
2022-10-23T10:55:27.261Z,7.03
2022-10-23T10:58:40.537Z,5.83
2022-10-23T11:01:51.096Z,8.73
2022-10-23T11:05:25.139Z,7.82
2022-10-23T11:08:44.565Z,8.68
2022-10-23T11:11:58.138Z,8.90
2022-10-23T11:15:00.610Z,9.30
2022-10-23T11:18:12.264Z,8.82
2022-10-23T11:21:27.009Z,7.82
2022-10-23T11:24:57.250Z,7.35
2022-10-23T11:28:10.347Z,8.75
2022-10-23T11:31:32.768Z,9.30
2022-10-23T11:34:51.929Z,8.90
2022-10-23T11:38:07.757Z,8.27
2022-10-23T11:41:22.303Z,8.93
2022-10-23T11:44:45.375Z,6.85
2022-10-23T11:47:57.075Z,10.47
2022-10-23T11:51:01.541Z,9.25
2022-10-23T11:54:17.016Z,9.68
2022-10-23T11:57:19.880Z,9.82
2022-10-23T12:00:23.287Z,9.65
2022-10-23T12:03:31.132Z,7.73
2022-10-23T12:06:40.163Z,10.60
2022-10-23T12:09:53.105Z,11.80
2022-10-23T12:12:58.396Z,11.20
2022-10-23T12:16:01.311Z,10.55
2022-10-23T12:19:19.688Z,9.90
2022-10-23T12:22:25.622Z,12.20
2022-10-23T12:25:47.049Z,10.40
2022-10-23T12:29:18.768Z,10.50
2022-10-23T12:32:55.423Z,12.73
2022-10-23T12:36:16.745Z,10.67
2022-10-23T12:39:51.441Z,12.10
2022-10-23T12:42:55.279Z,13.52
2022-10-23T12:46:05.768Z,12.13
2022-10-23T12:49:20.498Z,14.07
2022-10-23T12:52:25.313Z,13.60
2022-10-23T12:55:35.068Z,12.88
2022-10-23T12:58:49.646Z,13.48
2022-10-23T13:01:53.879Z,12.70
2022-10-23T13:04:58.921Z,14.27
2022-10-23T13:08:02.741Z,12.67
2022-10-23T13:11:10.144Z,13.55
2022-10-23T13:14:14.584Z,13.77
2022-10-23T13:17:17.041Z,14.50
2022-10-23T13:20:26.749Z,14.27
2022-10-23T13:23:31.197Z,14.03
2022-10-23T13:26:45.133Z,13.85
2022-10-23T13:29:47.820Z,13.98
2022-10-23T13:32:50.550Z,14.07
2022-10-23T13:36:01.296Z,15.05
2022-10-23T13:39:09.997Z,14.23
2022-10-23T13:42:14.788Z,16.58
2022-10-23T13:45:20.822Z,15.38
2022-10-23T13:48:23.466Z,14.10
2022-10-23T13:51:28.589Z,15.55
2022-10-23T13:54:31.333Z,15.03
2022-10-23T13:57:34.038Z,16.42
2022-10-23T14:00:37.900Z,14.75
2022-10-23T14:03:40.648Z,13.95
2022-10-23T14:06:43.956Z,16.92
2022-10-23T14:09:46.805Z,15.27
2022-10-23T14:12:53.694Z,15.50
2022-10-23T14:15:56.618Z,13.80
2022-10-23T14:18:59.259Z,16.80
2022-10-23T14:22:02.104Z,16.80
2022-10-23T14:25:05.397Z,14.50
2022-10-23T14:28:08.140Z,16.27
2022-10-23T14:31:13.205Z,16.45
2022-10-23T14:34:16.107Z,15.38
2022-10-23T14:37:19.595Z,15.70
2022-10-23T14:40:22.573Z,16.90
2022-10-23T14:43:25.172Z,16.35
2022-10-23T14:46:28.002Z,16.05
2022-10-23T14:49:31.027Z,16.52
2022-10-23T14:52:33.756Z,17.52
2022-10-23T14:55:36.322Z,18.43
2022-10-23T14:58:39.212Z,18.58
2022-10-23T15:01:45.498Z,19.08
2022-10-23T15:04:49.998Z,19.65
2022-10-23T15:07:52.593Z,19.67
2022-10-23T15:11:00.301Z,21.07
2022-10-23T15:14:02.904Z,19.20
2022-10-23T15:17:05.864Z,19.75
2022-10-23T15:20:08.884Z,16.48
2022-10-23T15:23:11.762Z,17.85
2022-10-23T15:26:23.244Z,18.10
2022-10-23T15:29:25.981Z,16.95
2022-10-23T15:32:28.491Z,18.62
2022-10-23T15:35:32.134Z,18.27
2022-10-23T15:38:34.805Z,17.27
2022-10-23T15:41:40.233Z,18.80
2022-10-23T15:44:42.841Z,19.02
2022-10-23T15:47:46.065Z,18.90
2022-10-23T15:50:48.860Z,18.40
2022-10-23T15:53:51.967Z,18.58
2022-10-23T15:56:55.121Z,19.30
2022-10-23T15:59:57.994Z,20.80
2022-10-23T16:03:00.471Z,20.52
2022-10-23T16:06:04.672Z,19.23
2022-10-23T16:09:07.400Z,19.23
2022-10-23T16:12:10.368Z,19.23
2022-10-23T16:15:13.065Z,20.12
2022-10-23T16:18:18.072Z,19.08
2022-10-23T16:21:26.027Z,18.25
2022-10-23T16:24:30.060Z,19.10
2022-10-23T16:27:32.787Z,18.83
2022-10-23T16:30:41.394Z,18.40
2022-10-23T16:33:44.130Z,19.20
2022-10-23T16:36:47.334Z,19.30
2022-10-23T16:39:50.477Z,21.45
2022-10-23T16:42:57.879Z,21.20
2022-10-23T16:46:20.358Z,20.58
2022-10-23T16:49:23.529Z,20.92
2022-10-23T16:52:27.518Z,20.08
2022-10-23T16:55:30.557Z,19.85
2022-10-23T16:58:33.301Z,20.27
2022-10-23T17:01:36.141Z,28.87
2022-10-23T17:04:38.921Z,21.15
2022-10-23T17:07:42.074Z,19.75
2022-10-23T17:10:45.325Z,21.73
2022-10-23T17:14:00.215Z,20.50
2022-10-23T17:17:03.649Z,21.02
2022-10-23T17:20:07.058Z,20.27
2022-10-23T17:23:09.733Z,22.58
2022-10-23T17:26:14.914Z,24.58
2022-10-23T17:29:18.422Z,24.27
2022-10-23T17:35:29.139Z,20.67
2022-10-23T17:38:32.136Z,20.98
2022-10-23T17:41:35.053Z,26.77
2022-10-23T17:44:38.103Z,25.57
2022-10-23T17:47:43.061Z,31.17
2022-10-23T17:50:45.966Z,37.17
2022-10-23T17:53:51.781Z,35.00
2022-10-23T17:56:55.086Z,30.00
2022-10-23T17:59:57.808Z,22.33
2022-10-23T18:03:00.585Z,25.45
2022-10-23T18:06:11.385Z,24.27
2022-10-23T18:09:15.222Z,26.83
2022-10-23T18:12:18.488Z,27.10
2022-10-23T18:15:21.305Z,21.80
2022-10-23T18:18:24.248Z,28.00
2022-10-23T18:21:27.271Z,23.75
2022-10-23T18:24:31.121Z,21.45
2022-10-23T18:27:33.628Z,21.87
2022-10-23T18:33:42.339Z,21.55
2022-10-23T18:36:45.664Z,22.27
2022-10-23T18:39:48.810Z,24.05
2022-10-23T18:42:51.841Z,22.50
2022-10-23T18:45:54.637Z,21.23
2022-10-23T18:48:58.893Z,22.15
2022-10-23T18:52:03.430Z,19.70
2022-10-23T18:55:07.657Z,22.02
2022-10-23T18:58:10.517Z,21.15
2022-10-23T19:01:13.621Z,20.67
2022-10-23T19:04:18.014Z,20.27
2022-10-23T19:07:21.230Z,19.80
2022-10-23T19:10:25.677Z,17.87
2022-10-23T19:13:28.780Z,19.02
2022-10-23T19:16:41.955Z,19.03
2022-10-23T19:19:48.655Z,18.48
2022-10-23T19:22:52.611Z,18.67
2022-10-23T19:25:55.403Z,16.55
2022-10-23T19:28:58.170Z,18.90
2022-10-23T19:32:01.855Z,18.70
2022-10-23T19:35:04.858Z,16.67
2022-10-23T19:38:07.873Z,16.60
2022-10-23T19:41:10.882Z,15.18
2022-10-23T19:44:14.483Z,16.92
2022-10-23T19:47:17.341Z,16.20
2022-10-23T19:50:20.466Z,16.45
2022-10-23T19:53:23.177Z,17.20
2022-10-23T19:56:26.435Z,17.15
2022-10-23T19:59:29.894Z,16.90
2022-10-23T20:05:46.537Z,17.67
2022-10-23T20:08:49.556Z,17.75
2022-10-23T20:11:52.552Z,18.40
2022-10-23T20:14:55.237Z,17.85
2022-10-23T20:17:58.513Z,18.80
2022-10-23T20:21:02.601Z,16.75
2022-10-23T20:24:06.304Z,17.75
2022-10-23T20:27:15.511Z,17.45
2022-10-23T20:30:18.562Z,19.87
2022-10-23T20:33:21.293Z,19.27
2022-10-23T20:36:45.488Z,19.33
2022-10-23T20:39:49.744Z,17.80
2022-10-23T20:42:52.756Z,17.50
2022-10-23T20:45:55.335Z,19.42
2022-10-23T20:48:59.229Z,19.53
2022-10-23T20:52:02.818Z,19.92
2022-10-23T20:55:06.029Z,18.20
2022-10-23T20:58:09.439Z,18.00
2022-10-23T21:01:16.445Z,17.52
2022-10-23T21:04:20.978Z,17.13
2022-10-23T21:07:23.752Z,17.45
2022-10-23T21:10:26.262Z,16.77
2022-10-23T21:13:29.412Z,16.35
2022-10-23T21:16:34.321Z,16.17
2022-10-23T21:19:37.130Z,15.30
2022-10-23T21:22:39.558Z,15.10
2022-10-23T21:25:42.363Z,17.20
2022-10-23T21:28:55.829Z,15.23
2022-10-23T21:32:08.531Z,15.73
2022-10-23T21:35:10.948Z,16.60
2022-10-23T21:38:13.717Z,14.57
2022-10-23T21:41:19.700Z,14.38
2022-10-23T21:44:22.497Z,14.87
2022-10-23T21:47:24.992Z,14.07
2022-10-23T21:50:27.760Z,12.83
2022-10-23T21:53:30.294Z,14.63
2022-10-23T21:56:56.226Z,14.57
2022-10-23T21:59:58.920Z,14.55
2022-10-23T22:03:01.609Z,13.27
2022-10-23T22:06:04.392Z,13.07
2022-10-23T22:09:08.118Z,13.57
2022-10-23T22:12:11.558Z,13.80
2022-10-23T22:15:13.985Z,13.50
2022-10-23T22:18:16.873Z,12.85
2022-10-23T22:21:22.130Z,12.43
2022-10-23T22:24:25.051Z,12.60
2022-10-23T22:27:27.998Z,13.18
2022-10-23T22:30:30.716Z,13.45
2022-10-23T22:33:33.203Z,12.00
2022-10-23T22:36:37.136Z,11.43
2022-10-23T22:39:39.997Z,12.10
2022-10-23T22:42:43.470Z,12.70
2022-10-23T22:45:46.224Z,11.70
2022-10-23T22:48:49.154Z,10.68
2022-10-23T22:51:51.705Z,10.77
2022-10-23T22:54:54.427Z,10.77
2022-10-23T22:57:56.847Z,11.48
2022-10-23T23:01:18.287Z,11.23
2022-10-23T23:07:45.552Z,10.47
2022-10-23T23:10:55.478Z,10.68
2022-10-23T23:13:58.223Z,10.15
2022-10-23T23:17:00.766Z,9.77
2022-10-23T23:20:03.784Z,9.70
2022-10-23T23:23:06.354Z,9.17
2022-10-23T23:26:09.095Z,10.82
2022-10-23T23:29:11.955Z,9.85
2022-10-23T23:32:14.736Z,10.55
2022-10-23T23:35:18.176Z,10.55
2022-10-23T23:38:20.908Z,10.77
2022-10-23T23:41:23.924Z,9.52
2022-10-23T23:44:26.811Z,10.35
2022-10-23T23:47:29.321Z,10.30
2022-10-23T23:50:32.109Z,10.13
2022-10-23T23:53:34.635Z,9.10
2022-10-23T23:56:37.366Z,9.50
2022-10-23T23:59:41.293Z,10.13
